Rehoboth Beach, Delaware
Current Conditions -  °F | °C
As of 9:54 AM on Monday 22 Dec 2014 (Local Time) from KGED Reporting Station
Overcast Overcast  
Wind Chill: 33°   Ceiling: 4800
Heat Index: 38°   Visibility: 8mi
Dew Point: 30°   Wind: 6mph
Humidity: 73%   Direction: 30°NNE
Pressure: 30.29"   Gusts: NA
Location:  38.72°N, 75.08°W
Report Text: KGED 221454Z AUTO 03005KT 8SM OVC048 03/M01 A3029 RMK AO2 SLP256 T00331011 50000
Loading
Personal Weather Stations






























Interactive Weather Map New forecast layout! Learn more

10-Day Weather Forecast

Advertisements
Track Severe Weather on mobile